createdAt,value
2018-09-06T04:03:02.289Z,23.43
2018-09-06T04:13:11.596Z,23.17
2018-09-06T04:23:14.222Z,22.53
2018-09-06T04:33:17.848Z,29.00
2018-09-06T04:43:22.415Z,29.67
2018-09-06T04:53:24.976Z,29.07
2018-09-06T05:03:27.497Z,30.90
2018-09-06T05:13:30.080Z,26.90
2018-09-06T05:23:34.681Z,22.97
2018-09-06T05:33:40.566Z,25.40
2018-09-06T05:43:43.105Z,23.17
2018-09-06T05:53:45.658Z,24.67
2018-09-06T06:03:48.609Z,23.83
2018-09-06T06:13:55.118Z,26.70
2018-09-06T06:23:57.703Z,26.60
2018-09-06T06:34:00.316Z,32.80
2018-09-06T06:44:13.625Z,37.20
2018-09-06T06:54:19.519Z,33.83
2018-09-06T07:04:30.172Z,26.67
2018-09-06T07:14:32.727Z,27.60
2018-09-06T07:24:40.090Z,27.93
2018-09-06T07:34:43.884Z,29.03
2018-09-06T07:44:46.755Z,28.73
2018-09-06T07:54:53.017Z,29.37
2018-09-06T08:04:55.856Z,32.30
2018-09-06T08:14:58.665Z,31.27
2018-09-06T08:25:01.435Z,31.77
2018-09-06T08:35:04.982Z,30.80
2018-09-06T08:45:09.639Z,31.60
2018-09-06T08:55:12.136Z,31.30
2018-09-06T09:05:14.968Z,31.67
2018-09-06T09:15:17.498Z,36.90
2018-09-06T09:25:20.004Z,38.07
2018-09-06T09:35:22.529Z,35.93
2018-09-06T09:45:25.041Z,27.33
2018-09-06T09:55:27.553Z,23.70
2018-09-06T10:05:40.674Z,22.83
2018-09-06T10:15:44.221Z,23.70
2018-09-06T10:25:55.112Z,22.93
2018-09-06T10:35:57.679Z,24.30
2018-09-06T10:46:00.191Z,22.23
2018-09-06T10:56:03.712Z,23.17
2018-09-06T11:06:05.957Z,22.37
2018-09-06T11:16:09.160Z,22.20
2018-09-06T11:26:14.356Z,22.30
2018-09-06T11:36:20.000Z,20.07
2018-09-06T11:46:22.518Z,20.47
2018-09-06T11:56:25.094Z,18.90
2018-09-06T12:06:27.691Z,16.90
2018-09-06T12:16:30.164Z,18.63
2018-09-06T12:26:37.263Z,15.87
2018-09-06T12:36:39.794Z,19.20
2018-09-06T12:46:43.591Z,14.63
2018-09-06T12:56:48.211Z,13.87
2018-09-06T13:06:50.752Z,16.50
2018-09-06T13:16:57.298Z,13.93
2018-09-06T13:26:59.793Z,14.67
2018-09-06T13:37:02.354Z,14.00
2018-09-06T13:47:04.924Z,13.00
2018-09-06T13:57:14.748Z,12.30
2018-09-06T14:07:19.333Z,12.63
2018-09-06T14:17:21.923Z,13.10
2018-09-06T14:27:26.379Z,13.60
2018-09-06T14:37:29.856Z,13.50
2018-09-06T14:47:32.353Z,12.47
2018-09-06T14:57:38.146Z,12.90
2018-09-06T15:07:41.633Z,12.40
2018-09-06T15:17:44.127Z,11.90
2018-09-06T15:27:46.766Z,13.23
2018-09-06T15:37:49.230Z,19.97
2018-09-06T15:47:51.724Z,12.33
2018-09-06T15:58:00.074Z,12.50
2018-09-06T16:08:02.595Z,12.80
2018-09-06T16:18:05.233Z,12.20
2018-09-06T16:28:08.203Z,13.30
2018-09-06T16:48:41.972Z,12.37
2018-09-06T16:58:55.000Z,14.60
2018-09-06T17:08:57.583Z,14.63
2018-09-06T17:19:00.079Z,14.60
2018-09-06T17:29:02.642Z,14.73
2018-09-06T17:39:13.417Z,14.03
2018-09-06T17:49:15.853Z,14.67
2018-09-06T17:59:23.948Z,14.83
2018-09-06T18:09:27.494Z,14.70
2018-09-06T18:19:48.461Z,16.20
2018-09-06T18:40:19.212Z,17.80
2018-09-06T18:50:27.452Z,15.27
2018-09-06T19:00:35.711Z,15.77
2018-09-06T19:10:39.344Z,16.73
2018-09-06T19:20:43.915Z,17.30
2018-09-06T19:30:46.693Z,19.90
2018-09-06T19:40:49.393Z,17.27
2018-09-06T19:50:52.052Z,17.40
2018-09-06T20:00:54.614Z,18.00
2018-09-06T20:10:58.210Z,20.40
2018-09-06T20:21:00.785Z,20.10
2018-09-06T20:31:04.067Z,19.57
2018-09-06T20:41:13.032Z,22.90
2018-09-06T20:51:22.495Z,18.23
2018-09-06T21:01:28.750Z,18.73
2018-09-06T21:11:32.475Z,18.97
2018-09-06T21:21:35.414Z,16.03
2018-09-06T21:31:48.045Z,16.73
2018-09-06T21:41:50.611Z,16.13
2018-09-06T21:51:53.273Z,15.50
2018-09-06T22:01:56.882Z,16.50
2018-09-06T22:11:59.428Z,17.47
2018-09-06T22:22:01.970Z,17.57
2018-09-06T22:32:18.115Z,19.80
2018-09-06T22:42:25.823Z,19.43
2018-09-06T22:52:30.454Z,21.50
2018-09-06T23:03:42.394Z,23.77
2018-09-06T23:13:44.890Z,19.03
2018-09-06T23:23:55.135Z,18.37
2018-09-06T23:34:15.360Z,17.27
2018-09-06T23:44:18.210Z,18.30
2018-09-06T23:54:23.080Z,18.30
